createdAt,value
2018-06-16T00:02:09.187Z,4.00
2018-06-16T00:04:37.044Z,4.10
2018-06-16T00:07:04.949Z,5.10
2018-06-16T00:09:34.149Z,4.90
2018-06-16T00:12:01.989Z,4.30
2018-06-16T00:14:29.835Z,4.70
2018-06-16T00:16:57.814Z,4.97
2018-06-16T00:19:25.776Z,4.87
2018-06-16T00:21:53.525Z,4.40
2018-06-16T00:24:21.514Z,4.40
2018-06-16T00:26:49.296Z,5.10
2018-06-16T00:29:17.404Z,4.50
2018-06-16T00:31:45.355Z,4.70
2018-06-16T00:34:13.190Z,4.43
2018-06-16T00:36:41.214Z,4.60
2018-06-16T00:39:10.175Z,4.53
2018-06-16T00:41:38.319Z,5.47
2018-06-16T00:44:06.578Z,4.73
2018-06-16T00:46:34.845Z,6.30
2018-06-16T00:49:03.104Z,4.83
2018-06-16T00:51:31.241Z,5.50
2018-06-16T00:53:59.284Z,6.40
2018-06-16T00:56:27.136Z,5.20
2018-06-16T00:58:55.094Z,5.07
2018-06-16T01:01:23.016Z,5.40
2018-06-16T01:03:51.006Z,5.50
2018-06-16T01:06:19.005Z,4.70
2018-06-16T01:08:46.940Z,4.77
2018-06-16T01:11:14.841Z,5.10
2018-06-16T01:13:42.524Z,5.10
2018-06-16T01:16:10.653Z,5.47
2018-06-16T01:18:38.593Z,4.80
2018-06-16T01:21:06.679Z,5.30
2018-06-16T01:23:34.386Z,5.33
2018-06-16T01:26:02.191Z,4.50
2018-06-16T01:28:30.177Z,5.00
2018-06-16T01:30:57.979Z,4.90
2018-06-16T01:33:25.655Z,5.53
2018-06-16T01:35:54.239Z,6.03
2018-06-16T01:38:22.000Z,4.90
2018-06-16T01:40:49.927Z,5.20
2018-06-16T01:43:17.860Z,5.57
2018-06-16T01:45:45.586Z,5.63
2018-06-16T01:48:13.557Z,5.80
2018-06-16T01:50:41.521Z,5.67
2018-06-16T01:53:09.305Z,7.83
2018-06-16T01:55:37.079Z,5.50
2018-06-16T01:58:05.362Z,5.67
2018-06-16T02:00:35.461Z,5.80
2018-06-16T02:03:04.066Z,5.70
2018-06-16T02:05:32.116Z,5.17
2018-06-16T02:07:59.982Z,4.90
2018-06-16T02:10:27.686Z,5.10
2018-06-16T02:12:55.638Z,5.30
2018-06-16T02:15:23.578Z,4.77
2018-06-16T02:17:51.474Z,5.33
2018-06-16T02:20:19.337Z,6.37
2018-06-16T02:22:47.221Z,5.87
2018-06-16T02:25:15.244Z,5.23
2018-06-16T02:27:43.258Z,5.40
2018-06-16T02:30:11.115Z,4.90
2018-06-16T02:32:39.136Z,4.43
2018-06-16T02:35:07.037Z,6.37
2018-06-16T02:37:34.945Z,5.50
2018-06-16T02:40:02.958Z,5.57
2018-06-16T02:42:36.889Z,5.50
2018-06-16T02:45:04.909Z,5.20
2018-06-16T02:47:32.701Z,5.80
2018-06-16T02:50:00.782Z,5.27
2018-06-16T02:52:28.491Z,4.77
2018-06-16T02:54:56.517Z,6.03
2018-06-16T02:57:24.448Z,4.30
2018-06-16T02:59:52.268Z,4.03
2018-06-16T03:02:20.179Z,4.90
2018-06-16T03:04:48.093Z,4.73
2018-06-16T03:07:16.042Z,4.50
2018-06-16T03:09:43.811Z,4.90
2018-06-16T03:12:11.791Z,5.27
2018-06-16T03:14:39.717Z,5.30
2018-06-16T03:17:07.694Z,4.50
2018-06-16T03:19:35.597Z,5.43
2018-06-16T03:22:03.757Z,5.77
2018-06-16T03:24:31.742Z,4.53
2018-06-16T03:26:59.734Z,4.80
2018-06-16T03:29:27.876Z,5.20
2018-06-16T03:31:55.762Z,5.63
2018-06-16T03:34:24.017Z,5.53
2018-06-16T03:36:51.927Z,5.10
2018-06-16T03:39:19.931Z,5.00
2018-06-16T03:41:54.556Z,4.93
2018-06-16T03:44:22.521Z,3.80
2018-06-16T03:46:50.486Z,5.03
2018-06-16T03:49:18.497Z,4.80
2018-06-16T03:51:46.573Z,4.10
2018-06-16T03:54:14.475Z,5.63
2018-06-16T03:56:42.783Z,5.20
2018-06-16T03:59:10.761Z,5.57
2018-06-16T04:01:38.900Z,4.10
2018-06-16T04:04:06.972Z,4.50
2018-06-16T04:06:35.453Z,4.77
2018-06-16T04:09:08.143Z,4.40
2018-06-16T04:11:36.153Z,5.07
2018-06-16T04:14:03.861Z,4.30
2018-06-16T04:16:31.786Z,4.13
2018-06-16T04:18:59.654Z,4.10
2018-06-16T04:21:27.630Z,4.33
2018-06-16T04:23:55.601Z,3.87
2018-06-16T04:26:23.594Z,4.20
2018-06-16T04:28:51.479Z,4.00
2018-06-16T04:31:19.425Z,3.97
2018-06-16T04:33:47.306Z,3.67
2018-06-16T04:36:14.959Z,4.27
2018-06-16T04:38:42.723Z,4.10
2018-06-16T04:41:10.600Z,5.00
2018-06-16T04:43:39.220Z,4.60
2018-06-16T04:46:07.038Z,3.40
2018-06-16T04:48:34.956Z,3.67
2018-06-16T04:51:02.950Z,3.43
2018-06-16T04:53:30.919Z,3.80
2018-06-16T04:55:59.086Z,4.23
2018-06-16T04:58:27.111Z,3.70
2018-06-16T05:00:55.031Z,3.70
2018-06-16T05:03:29.459Z,3.53
2018-06-16T05:05:57.351Z,4.27
2018-06-16T05:08:25.146Z,3.53
2018-06-16T05:10:53.045Z,3.47
2018-06-16T05:13:20.995Z,3.80
2018-06-16T05:15:48.861Z,4.20
2018-06-16T05:18:16.768Z,4.00
2018-06-16T05:20:44.479Z,4.00
2018-06-16T05:23:12.350Z,3.60
2018-06-16T05:25:40.080Z,3.60
2018-06-16T05:28:08.049Z,4.40
2018-06-16T05:30:35.761Z,3.40
2018-06-16T05:33:03.965Z,3.40
2018-06-16T05:35:31.875Z,3.17
2018-06-16T05:37:59.703Z,2.80
2018-06-16T05:40:27.507Z,3.30
2018-06-16T05:42:55.466Z,3.90
2018-06-16T05:45:23.432Z,3.70
2018-06-16T05:47:51.161Z,3.60
2018-06-16T05:50:19.255Z,3.80
2018-06-16T05:52:47.515Z,3.17
2018-06-16T05:55:16.421Z,3.30
2018-06-16T05:57:44.293Z,3.90
2018-06-16T06:00:12.175Z,3.53
2018-06-16T06:02:40.013Z,4.03
2018-06-16T06:05:13.891Z,3.87
2018-06-16T06:07:41.691Z,3.73
2018-06-16T06:10:09.471Z,3.07
2018-06-16T06:12:37.237Z,3.60
2018-06-16T06:15:05.036Z,3.73
2018-06-16T06:17:32.927Z,3.97
2018-06-16T06:20:00.941Z,3.50
2018-06-16T06:22:28.919Z,4.17
2018-06-16T06:24:56.646Z,4.13
2018-06-16T06:27:24.583Z,3.20
2018-06-16T06:29:52.556Z,4.40
2018-06-16T06:32:20.529Z,4.27
2018-06-16T06:34:48.324Z,4.40
2018-06-16T06:37:16.237Z,3.63
2018-06-16T06:39:44.291Z,4.07
2018-06-16T06:42:12.402Z,3.80
2018-06-16T07:01:52.947Z,4.30
2018-06-16T07:04:20.881Z,4.13
2018-06-16T07:06:48.869Z,4.57
2018-06-16T07:09:16.812Z,4.70
2018-06-16T07:11:44.711Z,4.07
2018-06-16T07:14:12.794Z,4.50
2018-06-16T07:16:41.550Z,5.83
2018-06-16T07:19:09.495Z,4.67
2018-06-16T07:21:37.619Z,4.40
2018-06-16T07:24:05.247Z,4.93
2018-06-16T07:26:33.116Z,5.40
2018-06-16T07:29:00.960Z,4.80
2018-06-16T07:31:28.710Z,4.37
2018-06-16T07:33:56.753Z,4.17
2018-06-16T07:36:24.520Z,4.60
2018-06-16T07:38:52.259Z,4.33
2018-06-16T07:41:20.081Z,4.50
2018-06-16T07:43:47.830Z,4.73
2018-06-16T07:46:16.062Z,5.10
2018-06-16T07:48:43.939Z,4.43
2018-06-16T07:51:11.898Z,4.73
2018-06-16T07:53:39.790Z,4.63
2018-06-16T07:56:07.704Z,4.87
2018-06-16T07:58:35.586Z,5.10
2018-06-16T08:01:03.421Z,4.93
2018-06-16T13:44:56.841Z,4.40
2018-06-16T15:57:35.515Z,4.10
2018-06-16T16:00:03.755Z,3.93
2018-06-16T16:02:32.180Z,3.87
2018-06-16T16:05:00.024Z,3.57
2018-06-16T16:07:28.012Z,3.37
2018-06-16T16:09:55.975Z,3.63
2018-06-16T18:37:21.985Z,5.55
2018-06-16T20:35:40.023Z,7.60
2018-06-16T20:38:08.392Z,7.10
2018-06-16T20:40:36.406Z,7.03
2018-06-16T20:43:04.203Z,6.97
2018-06-16T20:45:32.040Z,6.83
2018-06-16T20:47:59.846Z,7.90
2018-06-16T20:50:28.346Z,8.27
2018-06-16T20:53:01.197Z,7.40
2018-06-16T20:55:29.375Z,8.47
2018-06-16T20:57:57.369Z,9.10
2018-06-16T22:11:35.548Z,10.67
2018-06-16T22:14:03.445Z,10.00
2018-06-16T22:16:31.618Z,10.37
2018-06-16T22:19:00.844Z,10.87
2018-06-16T22:21:29.022Z,10.47
2018-06-16T22:23:56.845Z,10.10
2018-06-16T22:26:24.818Z,11.10
2018-06-16T22:28:52.684Z,11.77
2018-06-16T22:31:20.558Z,10.63
2018-06-16T22:33:49.041Z,10.47
2018-06-16T22:36:17.440Z,10.50
2018-06-16T22:38:45.500Z,9.30
2018-06-16T22:41:13.561Z,8.10
2018-06-16T22:43:41.656Z,7.97
2018-06-16T22:46:09.749Z,6.93
2018-06-16T22:48:37.579Z,6.10
2018-06-16T22:51:06.215Z,7.40
2018-06-16T22:53:36.508Z,6.40
2018-06-16T22:56:04.409Z,6.27
2018-06-16T22:58:32.173Z,6.50
2018-06-16T23:00:59.924Z,7.77
2018-06-16T23:03:27.731Z,6.97
2018-06-16T23:05:55.722Z,7.70
2018-06-16T23:08:23.650Z,8.03
2018-06-16T23:10:51.631Z,7.17
2018-06-16T23:13:19.549Z,7.73
2018-06-16T23:15:47.465Z,7.60
2018-06-16T23:18:15.329Z,9.00
2018-06-16T23:20:43.260Z,9.30
2018-06-16T23:23:11.051Z,9.83
2018-06-16T23:25:39.087Z,10.27
2018-06-16T23:28:16.656Z,8.90
2018-06-16T23:30:44.517Z,9.60
2018-06-16T23:33:12.431Z,9.13
2018-06-16T23:35:40.601Z,9.67
2018-06-16T23:38:08.364Z,9.30
2018-06-16T23:40:36.316Z,11.00
2018-06-16T23:43:04.504Z,11.57
2018-06-16T23:45:32.415Z,9.70
2018-06-16T23:48:00.853Z,9.40
2018-06-16T23:50:28.760Z,10.00
2018-06-16T23:52:56.541Z,9.47
2018-06-16T23:55:24.612Z,9.93
2018-06-16T23:57:53.205Z,10.40
